Time;durP1;ratioP1;P1;durP2;ratioP2;P2;SDS_P1;SDS_P2;PMS_P1;PMS_P2;Temp;Humidity;BMP_temperature;BMP_pressure;BME280_temperature;BME280_humidity;BME280_pressure;Samples;Min_cycle;Max_cycle;Signal;HPM_P1;HPM_P2
2023/11/21 00:02:21;;;;;;;18.80;11.40;;;;;;;-144.73;81.26;86930.13;110674;1266;22311;-55
2023/11/21 00:05:13;;;;;;;20.40;11.30;;;;;;;-144.73;81.11;86928.15;110598;1273;22149;-54
2023/11/21 00:08:00;;;;;;;20.40;10.70;;;;;;;-144.73;81.19;86930.92;110565;1273;22143;-55
2023/11/21 00:10:46;;;;;;;18.50;10.70;;;;;;;-144.73;81.52;86938.44;110592;1273;22346;-55
2023/11/21 00:13:32;;;;;;;23.50;13.90;;;;;;;-144.73;81.67;86939.63;110630;1254;22945;-54
2023/11/21 00:16:19;;;;;;;22.40;11.70;;;;;;;-144.73;81.80;86956.23;110720;1266;22319;-55
2023/11/21 00:19:05;;;;;;;19.50;10.90;;;;;;;-144.73;82.17;86953.86;110602;1267;22188;-54
2023/11/21 00:21:51;;;;;;;24.00;11.80;;;;;;;-144.73;82.53;86942.79;110586;1273;22840;-56
2023/11/21 00:24:37;;;;;;;20.90;10.90;;;;;;;-144.73;82.79;86952.28;110659;1273;22309;-55
2023/11/21 00:27:23;;;;;;;21.10;12.50;;;;;;;-144.73;83.11;86940.02;110637;1273;22344;-55
2023/11/21 00:30:09;;;;;;;19.00;12.00;;;;;;;-144.73;83.18;86932.89;110715;1266;22333;-55
2023/11/21 00:32:56;;;;;;;25.60;12.60;;;;;;;-144.73;83.21;86934.88;110595;1266;22423;-55
2023/11/21 00:35:42;;;;;;;19.60;12.20;;;;;;;-144.73;83.19;86942.79;110647;1266;23103;-55
2023/11/21 00:38:28;;;;;;;20.00;12.90;;;;;;;-144.73;83.39;86958.61;110646;1266;22188;-55
2023/11/21 00:41:16;;;;;;;24.20;13.30;;;;;;;-144.73;83.74;86950.69;110617;1266;22303;-55
2023/11/21 00:44:02;;;;;;;20.60;12.20;;;;;;;-144.73;83.99;86941.60;110637;1266;22326;-54
2023/11/21 00:46:50;;;;;;;23.50;12.60;;;;;;;-144.73;84.40;86944.77;110725;1251;22184;-54
2023/11/21 00:49:39;;;;;;;19.70;13.10;;;;;;;-144.73;84.53;86957.42;110681;1267;22321;-55
2023/11/21 00:52:25;;;;;;;23.10;13.60;;;;;;;-144.73;84.42;86935.66;110644;1265;22208;-54
2023/11/21 00:55:12;;;;;;;21.60;12.00;;;;;;;-144.73;84.48;86937.65;110698;1257;22323;-55
2023/11/21 00:57:59;;;;;;;29.10;13.10;;;;;;;-144.73;84.48;86940.81;110637;1273;22311;-55
2023/11/21 01:00:45;;;;;;;23.40;11.80;;;;;;;-144.73;84.39;86940.81;110613;1273;22893;-55
2023/11/21 01:03:31;;;;;;;20.10;11.80;;;;;;;-144.73;84.25;86953.07;110768;1266;22139;-55
2023/11/21 01:06:19;;;;;;;20.70;11.60;;;;;;;-144.73;84.54;86949.11;110380;1273;22306;-54
2023/11/21 01:09:08;;;;;;;21.20;11.90;;;;;;;-144.73;84.53;86940.41;110624;1273;22144;-54
2023/11/21 01:11:54;;;;;;;25.30;12.20;;;;;;;-144.73;84.49;86916.67;110622;1273;22986;-54
2023/11/21 01:14:40;;;;;;;23.80;13.30;;;;;;;-144.73;84.42;86923.02;110605;1273;23083;-54
2023/11/21 01:17:27;;;;;;;26.00;13.30;;;;;;;-144.73;84.43;86926.17;110781;1261;22140;-54
2023/11/21 01:20:13;;;;;;;25.40;13.20;;;;;;;-144.73;84.27;86932.50;110785;1266;22141;-55
2023/11/21 01:23:00;;;;;;;22.70;14.00;;;;;;;-144.73;84.20;86928.55;110672;1266;22319;-54
2023/11/21 01:25:46;;;;;;;28.60;15.90;;;;;;;-144.73;84.11;86921.43;110631;1265;22130;-54
2023/11/21 01:28:32;;;;;;;23.80;13.80;;;;;;;-144.73;83.95;86930.92;110645;1266;22147;-55
2023/11/21 01:31:20;;;;;;;25.20;14.00;;;;;;;-144.73;83.72;86912.33;110702;1256;22331;-55
2023/11/21 01:34:07;;;;;;;24.70;13.80;;;;;;;-144.73;83.74;86926.17;110658;1257;22157;-55
2023/11/21 01:36:53;;;;;;;24.30;14.40;;;;;;;-144.73;83.88;86921.04;110782;1266;22326;-54
2023/11/21 01:39:40;;;;;;;25.10;14.10;;;;;;;-144.73;83.99;86909.17;110723;1266;23034;-54
2023/11/21 01:42:26;;;;;;;27.60;14.20;;;;;;;-144.73;83.84;86906.41;110743;1256;23042;-54
2023/11/21 01:45:14;;;;;;;25.60;14.80;;;;;;;-144.73;83.79;86904.82;110659;1265;23056;-55
2023/11/21 01:48:02;;;;;;;25.00;14.30;;;;;;;-144.73;83.85;86932.11;110767;1265;22315;-54
2023/11/21 01:50:49;;;;;;;26.90;14.60;;;;;;;-144.73;83.72;86926.97;110613;1257;22331;-54
2023/11/21 01:53:36;;;;;;;23.20;14.50;;;;;;;-144.73;83.72;86902.05;110680;1266;22313;-54
2023/11/21 01:56:23;;;;;;;24.80;14.60;;;;;;;-144.73;83.76;86920.23;110740;1266;22126;-54
2023/11/21 01:59:10;;;;;;;25.60;14.60;;;;;;;-144.73;83.63;86911.15;110604;1273;22196;-54
2023/11/21 02:01:56;;;;;;;25.40;13.70;;;;;;;-144.73;83.78;86917.48;110659;1273;22192;-56
2023/11/21 02:04:43;;;;;;;25.80;14.80;;;;;;;-144.73;83.70;86910.75;110604;1273;22905;-54
2023/11/21 02:07:30;;;;;;;26.10;15.10;;;;;;;-144.73;83.71;86918.27;110646;1273;22847;-57
2023/11/21 02:10:16;;;;;;;29.70;17.00;;;;;;;-144.73;83.89;86916.67;110593;1273;22155;-54
2023/11/21 02:13:04;;;;;;;28.20;16.80;;;;;;;-144.73;84.08;86919.85;110645;1273;22231;-54
2023/11/21 02:15:52;;;;;;;27.90;15.30;;;;;;;-144.73;84.40;86921.83;110625;1273;22100;-55
2023/11/21 02:18:39;;;;;;;27.00;14.80;;;;;;;-144.73;84.56;86924.59;110686;1273;22252;-54
2023/11/21 02:21:27;;;;;;;24.90;13.80;;;;;;;-144.73;84.70;86926.97;110515;1273;22845;-55
2023/11/21 02:24:13;;;;;;;29.70;16.80;;;;;;;-144.73;84.63;86935.66;110601;1273;22153;-54
2023/11/21 02:26:59;;;;;;;27.30;14.90;;;;;;;-144.73;84.65;86923.02;110623;1273;22162;-54
2023/11/21 02:29:46;;;;;;;27.80;16.50;;;;;;;-144.73;84.57;86920.64;110647;1273;22130;-56
2023/11/21 02:32:32;;;;;;;29.40;15.70;;;;;;;-144.73;84.38;86910.75;110658;1273;22961;-54
2023/11/21 02:35:18;;;;;;;24.80;14.80;;;;;;;-144.73;84.40;86927.36;110636;1273;22146;-54
2023/11/21 02:38:04;;;;;;;30.60;16.50;;;;;;;-144.73;84.37;86928.15;110584;1273;22472;-54
2023/11/21 02:40:50;;;;;;;29.30;16.20;;;;;;;-144.73;84.24;86925.77;110722;1273;22193;-54
2023/11/21 02:43:36;;;;;;;28.80;16.20;;;;;;;-144.73;84.22;86932.11;110718;1273;22215;-54
2023/11/21 02:46:21;;;;;;;32.80;16.90;;;;;;;-144.73;84.37;86920.64;110712;1273;22141;-54
2023/11/21 02:49:10;;;;;;;31.70;17.00;;;;;;;-144.73;84.39;86911.94;110637;1273;22217;-54
2023/11/21 02:51:56;;;;;;;26.80;16.60;;;;;;;-144.73;84.30;86917.87;110613;1274;22190;-54
2023/11/21 02:54:42;;;;;;;30.10;16.00;;;;;;;-144.73;84.30;86932.50;110651;1274;22197;-54
2023/11/21 02:57:28;;;;;;;26.50;15.10;;;;;;;-144.73;84.41;86943.58;110774;1256;22955;-54
2023/11/21 03:00:15;;;;;;;26.30;14.90;;;;;;;-144.73;84.73;86940.41;110574;1274;22130;-55
2023/11/21 03:03:01;;;;;;;24.80;14.80;;;;;;;-144.73;84.78;86935.67;110608;1274;22901;-55
2023/11/21 03:05:47;;;;;;;30.20;16.20;;;;;;;-144.73;85.34;86961.77;110609;1274;22831;-54
2023/11/21 03:08:34;;;;;;;30.40;16.40;;;;;;;-144.73;85.94;86937.64;110593;1256;22133;-54
2023/11/21 03:11:21;;;;;;;28.40;15.30;;;;;;;-144.73;86.32;86955.45;110537;1274;22130;-54
2023/11/21 03:14:07;;;;;;;30.00;17.00;;;;;;;-144.73;87.01;86930.13;110565;1274;22839;-55
2023/11/21 03:16:53;;;;;;;29.30;16.50;;;;;;;-144.73;87.14;86948.33;110625;1274;22778;-54
2023/11/21 03:19:44;;;;;;;33.00;17.90;;;;;;;-144.73;87.53;86962.56;110554;1274;22137;-54
2023/11/21 03:22:30;;;;;;;27.60;15.80;;;;;;;-144.73;87.82;86964.14;110616;1274;22769;-55
2023/11/21 03:25:17;;;;;;;28.50;16.50;;;;;;;-144.73;88.25;86981.55;110586;1274;22178;-53
2023/11/21 03:28:04;;;;;;;25.50;15.30;;;;;;;-144.73;88.78;86977.59;110554;1274;22993;-54
2023/11/21 03:30:50;;;;;;;31.60;17.40;;;;;;;-144.73;89.40;86976.02;110590;1274;22156;-54
2023/11/21 03:33:36;;;;;;;31.90;16.50;;;;;;;-144.73;90.27;86985.90;110515;1274;22087;-52
2023/11/21 03:36:22;;;;;;;33.20;17.20;;;;;;;-144.73;90.78;86968.89;110601;1274;22147;-55
2023/11/21 03:39:08;;;;;;;32.10;17.20;;;;;;;-144.73;91.12;86976.80;110605;1274;22196;-56
2023/11/21 03:41:54;;;;;;;33.20;18.20;;;;;;;-144.73;91.31;86977.99;110596;1274;22138;-55
2023/11/21 03:44:40;;;;;;;30.40;16.70;;;;;;;-144.73;91.10;86979.17;110557;1274;22119;-55
2023/11/21 03:47:28;;;;;;;31.10;16.80;;;;;;;-144.73;91.14;86968.49;110583;1274;22887;-53
2023/11/21 03:50:14;;;;;;;32.30;17.80;;;;;;;-144.73;91.18;86956.23;110592;1274;22145;-55
2023/11/21 03:53:02;;;;;;;34.40;18.40;;;;;;;-144.73;91.09;86973.64;110598;1274;22833;-55
2023/11/21 03:55:49;;;;;;;32.30;17.10;;;;;;;-144.73;91.02;86972.45;110607;1274;22959;-54
2023/11/21 03:58:36;;;;;;;28.10;16.20;;;;;;;-144.73;91.04;86971.27;110583;1274;22121;-54
2023/11/21 04:01:22;;;;;;;32.50;17.60;;;;;;;-144.73;90.95;86959.80;110623;1274;22137;-54
2023/11/21 04:04:09;;;;;;;31.00;18.10;;;;;;;-144.73;90.62;86969.29;110614;1256;22182;-54
2023/11/21 04:06:56;;;;;;;34.90;17.60;;;;;;;-144.73;90.61;86964.15;110627;1274;22116;-55
2023/11/21 04:09:42;;;;;;;37.50;18.90;;;;;;;-144.73;90.50;86967.30;110601;1274;22145;-54
2023/11/21 04:12:28;;;;;;;52.80;26.90;;;;;;;-144.73;90.57;86966.91;110587;1274;22125;-54
2023/11/21 04:15:14;;;;;;;79.40;43.20;;;;;;;-144.73;90.39;86959.80;110611;1274;22196;-54
2023/11/21 04:18:00;;;;;;;76.30;39.80;;;;;;;-144.73;90.33;86954.65;111020;1256;22886;-53
2023/11/21 04:20:48;;;;;;;54.90;29.00;;;;;;;-144.73;90.32;86967.71;111051;1256;22877;-54
2023/11/21 04:23:35;;;;;;;42.10;24.10;;;;;;;-144.73;90.24;86958.61;111060;1256;22150;-53
2023/11/21 04:26:21;;;;;;;33.00;18.30;;;;;;;-144.73;90.36;86940.41;110596;1274;22131;-53
2023/11/21 04:29:07;;;;;;;33.40;18.10;;;;;;;-144.73;90.51;86960.59;110611;1274;22089;-55
2023/11/21 04:31:53;;;;;;;33.80;19.10;;;;;;;-144.73;90.48;86950.70;110590;1274;22122;-55
2023/11/21 04:34:39;;;;;;;33.50;20.20;;;;;;;-144.73;90.13;86941.60;110582;1274;22102;-55
2023/11/21 04:37:26;;;;;;;30.00;18.60;;;;;;;-144.73;90.21;86955.84;110587;1274;22187;-55
2023/11/21 04:40:12;;;;;;;37.50;20.80;;;;;;;-144.73;90.26;86954.66;110564;1274;22089;-55
2023/11/21 04:42:58;;;;;;;37.90;20.20;;;;;;;-144.73;90.49;86963.35;110534;1274;22103;-54
2023/11/21 04:45:44;;;;;;;41.90;22.00;;;;;;;-144.73;90.53;86970.08;110543;1274;22100;-55
2023/11/21 04:48:30;;;;;;;38.00;21.80;;;;;;;-144.73;90.49;86958.61;110524;1274;22107;-54
2023/11/21 04:51:17;;;;;;;36.30;20.10;;;;;;;-144.73;90.69;86963.75;110533;1274;22136;-55
2023/11/21 04:54:05;;;;;;;38.20;22.00;;;;;;;-144.73;90.83;86951.89;110552;1274;22172;-55
2023/11/21 04:56:51;;;;;;;41.00;22.40;;;;;;;-144.73;90.52;86949.51;110524;1274;22214;-54
2023/11/21 04:59:37;;;;;;;38.20;22.60;;;;;;;-144.73;90.35;86945.16;110549;1274;22918;-54
2023/11/21 05:02:23;;;;;;;42.90;25.20;;;;;;;-144.73;90.33;86956.23;110550;1274;22323;-54
2023/11/21 05:05:20;;;;;;;40.50;23.80;;;;;;;-144.73;90.60;86951.48;110511;1274;22184;-54
2023/11/21 05:08:06;;;;;;;44.00;22.40;;;;;;;-144.73;90.21;86945.95;110537;1274;22145;-54
2023/11/21 05:10:53;;;;;;;39.50;21.10;;;;;;;-144.73;90.46;86950.70;110513;1274;22798;-54
2023/11/21 05:13:39;;;;;;;38.40;21.80;;;;;;;-144.73;90.54;86947.92;111108;1256;22991;-54
2023/11/21 05:16:27;;;;;;;41.30;20.50;;;;;;;-144.73;90.65;86970.08;110558;1274;22085;-55
2023/11/21 05:19:14;;;;;;;39.70;22.40;;;;;;;-144.73;91.51;86989.86;110531;1274;22123;-55
2023/11/21 05:22:00;;;;;;;40.00;23.30;;;;;;;-144.73;92.23;86985.91;110564;1274;22194;-54
2023/11/21 05:24:46;;;;;;;37.30;20.90;;;;;;;-144.73;92.71;86962.96;110540;1274;22087;-54
2023/11/21 05:27:33;;;;;;;39.60;21.60;;;;;;;-144.73;92.65;86976.02;110579;1274;22155;-54
2023/11/21 05:30:19;;;;;;;36.10;20.10;;;;;;;-144.73;92.69;86942.79;110533;1274;22122;-54
2023/11/21 05:33:05;;;;;;;36.30;22.30;;;;;;;-144.73;92.41;86943.58;110517;1274;22196;-54
2023/11/21 05:35:52;;;;;;;39.40;21.30;;;;;;;-144.73;92.29;86937.64;110556;1274;22123;-54
2023/11/21 05:38:38;;;;;;;36.10;19.50;;;;;;;-144.73;92.07;86882.27;110573;1274;22110;-54
2023/11/21 05:41:25;;;;;;;40.50;20.10;;;;;;;-144.73;91.43;86803.17;110497;1275;22923;-54
2023/11/21 05:44:14;;;;;;;44.90;24.50;;;;;;;-144.73;91.62;86764.80;110979;1256;22850;-54
2023/11/21 05:47:00;;;;;;;46.70;24.50;;;;;;;-144.73;90.36;86711.80;110573;1275;22151;-54
2023/11/21 05:49:50;;;;;;;44.30;24.00;;;;;;;-144.73;88.83;86690.05;110507;1275;22126;-54
2023/11/21 05:52:37;;;;;;;37.90;23.20;;;;;;;-144.73;86.81;86628.75;110578;1273;22307;-54
2023/11/21 05:55:25;;;;;;;37.30;21.20;;;;;;;-144.73;84.09;86565.08;110546;1273;22856;-55
2023/11/21 05:58:13;;;;;;;33.50;20.30;;;;;;;-144.73;79.72;86587.23;110610;1270;22291;-54
2023/11/21 06:01:00;;;;;;;36.70;21.70;;;;;;;-144.73;76.94;86622.42;110674;1272;22281;-54
2023/11/21 06:03:46;;;;;;;37.00;22.00;;;;;;;-144.73;75.95;86605.80;111246;1256;22132;-54
2023/11/21 06:06:32;;;;;;;37.90;22.00;;;;;;;-144.73;74.38;86634.30;110615;1272;22110;-54
2023/11/21 06:09:19;;;;;;;37.30;21.60;;;;;;;-144.73;74.53;86591.97;110625;1272;22330;-54
2023/11/21 06:12:05;;;;;;;38.30;22.70;;;;;;;-144.73;74.72;86589.98;110624;1273;22121;-55
2023/11/21 06:14:51;;;;;;;46.70;23.90;;;;;;;-144.73;73.51;86674.23;110607;1273;22150;-51
2023/11/21 06:17:37;;;;;;;33.50;21.30;;;;;;;-144.73;73.91;86680.56;110660;1271;22147;-51
2023/11/21 06:20:24;;;;;;;42.60;25.90;;;;;;;-144.73;73.93;86687.29;110630;1272;22131;-55
2023/11/21 06:23:10;;;;;;;49.40;23.50;;;;;;;-144.73;73.99;86686.10;110651;1272;22847;-55
2023/11/21 06:25:57;;;;;;;60.10;32.30;;;;;;;-144.73;73.78;86696.77;110614;1272;22820;-56
2023/11/21 06:28:43;;;;;;;57.30;29.80;;;;;;;-144.73;73.83;86699.94;110638;1273;22895;-56
2023/11/21 06:31:30;;;;;;;65.70;34.70;;;;;;;-144.73;73.60;86689.27;110592;1272;22105;-55
2023/11/21 06:34:16;;;;;;;63.70;33.40;;;;;;;-144.73;73.56;86690.06;110615;1272;22141;-54
2023/11/21 06:37:02;;;;;;;51.20;27.80;;;;;;;-144.73;73.74;86685.30;110603;1272;22844;-54
2023/11/21 06:39:52;;;;;;;48.60;26.60;;;;;;;-144.73;73.95;86699.55;110645;1272;22926;-54
2023/11/21 06:42:38;;;;;;;45.40;25.20;;;;;;;-144.73;73.94;86713.79;110622;1272;22335;-57
2023/11/21 06:45:24;;;;;;;46.10;25.90;;;;;;;-144.73;73.64;86705.88;110620;1272;22371;-55
2023/11/21 06:48:10;;;;;;;50.60;25.60;;;;;;;-144.73;73.46;86717.34;110656;1272;22427;-57
2023/11/21 06:50:57;;;;;;;51.90;26.60;;;;;;;-144.73;74.04;86732.77;110601;1272;22196;-57
2023/11/21 06:53:44;;;;;;;52.90;28.10;;;;;;;-144.73;73.91;86728.02;110635;1272;22145;-56
2023/11/21 06:56:31;;;;;;;51.00;27.00;;;;;;;-144.73;74.50;86737.91;110634;1272;22193;-55
2023/11/21 06:59:16;;;;;;;49.00;27.60;;;;;;;-144.73;74.77;86732.77;110627;1272;22140;-55
2023/11/21 07:02:04;;;;;;;49.40;26.50;;;;;;;-144.73;75.08;86743.45;111040;1256;22751;-56
2023/11/21 07:04:51;;;;;;;54.30;26.50;;;;;;;-144.73;74.83;86731.19;110593;1273;23005;-54
2023/11/21 07:07:38;;;;;;;45.30;27.50;;;;;;;-144.73;74.51;86744.64;110563;1273;22167;-54
2023/11/21 07:10:24;;;;;;;53.50;28.50;;;;;;;-144.73;75.23;86739.48;110588;1273;22298;-55
2023/11/21 07:13:12;;;;;;;49.40;27.80;;;;;;;-144.73;75.68;86752.94;111075;1256;22138;-56
2023/11/21 07:15:59;;;;;;;51.70;30.50;;;;;;;-144.73;75.72;86728.02;110573;1273;22168;-56
2023/11/21 07:18:46;;;;;;;49.10;29.20;;;;;;;-144.73;75.71;86722.88;110558;1273;22794;-56
2023/11/21 07:21:36;;;;;;;61.20;34.80;;;;;;;-144.73;75.42;86719.71;110627;1273;22140;-57
2023/11/21 07:24:26;;;;;;;59.80;33.70;;;;;;;-144.73;75.42;86721.69;110643;1273;22105;-56
2023/11/21 07:27:12;;;;;;;61.40;35.20;;;;;;;-144.73;74.93;86717.34;110641;1273;22145;-56
2023/11/21 07:29:58;;;;;;;64.50;36.60;;;;;;;-144.73;75.19;86719.33;110594;1273;22143;-56
2023/11/21 07:32:47;;;;;;;74.30;40.30;;;;;;;-144.73;75.60;86706.27;110630;1273;22130;-56
2023/11/21 07:35:34;;;;;;;72.60;38.80;;;;;;;-144.73;75.06;86698.77;110605;1273;22750;-55
2023/11/21 07:38:20;;;;;;;68.10;41.60;;;;;;;-144.73;74.98;86703.89;110633;1273;22144;-55
2023/11/21 07:41:09;;;;;;;71.60;39.60;;;;;;;-144.73;75.47;86715.77;111157;1257;22130;-55
2023/11/21 07:44:10;;;;;;;71.20;38.10;;;;;;;-144.73;75.83;86705.48;110594;1273;22123;-55
2023/11/21 07:46:57;;;;;;;68.30;35.60;;;;;;;-144.73;75.79;86685.70;110647;1273;22584;-56
2023/11/21 07:49:44;;;;;;;65.10;35.00;;;;;;;-144.73;75.23;86675.02;110617;1273;22093;-56
2023/11/21 07:52:31;;;;;;;63.00;35.10;;;;;;;-144.73;75.05;86697.17;110590;1273;22894;-56
2023/11/21 07:55:18;;;;;;;69.70;34.80;;;;;;;-144.73;75.48;86689.27;110615;1273;22100;-55
2023/11/21 07:58:04;;;;;;;66.10;36.80;;;;;;;-144.73;75.55;86699.55;110635;1273;22137;-57
2023/11/21 08:00:50;;;;;;;72.10;37.50;;;;;;;-144.73;75.33;86698.36;110589;1272;22082;-60
2023/11/21 08:03:37;;;;;;;74.20;38.50;;;;;;;-144.73;75.79;86697.97;110704;1266;22374;-59
2023/11/21 08:06:25;;;;;;;66.40;37.50;;;;;;;-144.73;75.17;86693.61;110609;1272;22117;-61
2023/11/21 08:09:12;;;;;;;64.00;36.40;;;;;;;-144.73;74.87;86702.31;110605;1273;22223;-61
2023/11/21 08:12:00;;;;;;;67.90;34.80;;;;;;;-144.73;74.07;86692.82;110663;1272;22900;-60
2023/11/21 08:14:47;;;;;;;56.50;30.50;;;;;;;-144.73;74.16;86714.58;110908;1265;22527;-60
2023/11/21 08:17:33;;;;;;;60.00;31.20;;;;;;;-144.73;73.54;86697.57;110474;1260;22960;-61
2023/11/21 08:20:19;;;;;;;53.30;29.90;;;;;;;-144.73;73.57;86705.09;110512;1263;22383;-60
2023/11/21 08:23:06;;;;;;;50.40;27.00;;;;;;;-144.73;74.05;86733.95;110553;1263;22302;-61
2023/11/21 08:25:53;;;;;;;53.80;27.70;;;;;;;-144.73;74.35;86731.98;110556;1254;22984;-62
2023/11/21 08:28:40;;;;;;;48.20;25.60;;;;;;;-144.73;74.64;86726.83;110493;1257;22334;-60
2023/11/21 08:31:26;;;;;;;37.70;23.60;;;;;;;-144.73;74.53;86720.90;110551;1261;22181;-61
2023/11/21 08:34:14;;;;;;;44.80;23.00;;;;;;;-144.73;74.03;86712.99;110519;1257;22344;-61
2023/11/21 08:37:00;;;;;;;44.70;25.10;;;;;;;-144.73;73.52;86719.71;110522;1257;22319;-61
2023/11/21 08:39:48;;;;;;;34.80;20.20;;;;;;;-144.73;73.50;86711.41;110534;1263;22302;-62
2023/11/21 08:42:34;;;;;;;36.40;20.90;;;;;;;-144.73;72.82;86730.39;110526;1260;22330;-60
2023/11/21 08:45:22;;;;;;;31.50;18.40;;;;;;;-144.73;73.15;86714.97;110611;1261;22394;-61
2023/11/21 08:48:08;;;;;;;36.30;20.40;;;;;;;-144.73;73.04;86744.63;110624;1256;23004;-60
2023/11/21 08:50:54;;;;;;;46.80;24.20;;;;;;;-144.73;73.60;86750.57;110542;1257;22438;-61
2023/11/21 08:53:41;;;;;;;41.50;22.70;;;;;;;-144.73;74.54;86764.80;110565;1257;22301;-61
2023/11/21 08:56:27;;;;;;;49.40;25.30;;;;;;;-144.73;75.12;86752.14;110577;1257;23184;-61
2023/11/21 08:59:14;;;;;;;43.50;23.50;;;;;;;-144.73;75.38;86746.61;110574;1261;22318;-62
2023/11/21 09:02:00;;;;;;;44.30;22.80;;;;;;;-144.73;75.14;86731.58;110532;1260;22393;-61
2023/11/21 09:04:47;;;;;;;41.70;23.50;;;;;;;-144.73;74.82;86726.44;110567;1261;22392;-62
2023/11/21 09:07:33;;;;;;;40.70;22.40;;;;;;;-144.73;74.61;86724.06;110532;1257;22314;-60
2023/11/21 09:10:20;;;;;;;44.60;21.60;;;;;;;-144.73;74.62;86729.61;110558;1260;22984;-61
2023/11/21 09:13:10;;;;;;;44.50;22.70;;;;;;;-144.73;74.62;86728.81;110543;1257;22337;-61
2023/11/21 09:15:56;;;;;;;49.00;24.00;;;;;;;-144.73;74.30;86729.61;110565;1263;22318;-60
2023/11/21 09:18:42;;;;;;;48.50;25.70;;;;;;;-144.73;74.56;86743.05;110577;1261;22365;-61
2023/11/21 09:21:29;;;;;;;50.50;25.20;;;;;;;-144.73;74.94;86748.98;110526;1260;22185;-61
2023/11/21 09:24:15;;;;;;;49.50;26.90;;;;;;;-144.73;75.31;86766.38;110595;1263;22180;-59
2023/11/21 09:27:01;;;;;;;48.70;26.20;;;;;;;-144.73;75.68;86758.87;110557;1257;23115;-60
2023/11/21 09:29:47;;;;;;;49.80;25.20;;;;;;;-144.73;75.94;86768.36;110616;1260;23156;-60
2023/11/21 09:32:35;;;;;;;51.10;24.50;;;;;;;-144.73;76.04;86760.06;110548;1257;22322;-62
2023/11/21 09:35:21;;;;;;;43.40;22.10;;;;;;;-144.73;76.08;86759.27;110591;1254;22419;-61
2023/11/21 09:38:10;;;;;;;42.70;20.90;;;;;;;-144.73;76.17;86749.77;110545;1257;22303;-60
2023/11/21 09:40:58;;;;;;;50.70;24.50;;;;;;;-144.73;75.69;86735.93;110593;1257;22796;-60
2023/11/21 09:43:47;;;;;;;53.70;27.00;;;;;;;-144.73;75.88;86743.45;110602;1255;22334;-62
2023/11/21 09:46:33;;;;;;;48.00;27.40;;;;;;;-144.73;76.42;86758.08;110590;1254;22408;-62
2023/11/21 09:49:25;;;;;;;47.90;26.20;;;;;;;-144.73;76.69;86775.48;110571;1267;22310;-62
2023/11/21 09:52:18;;;;;;;42.20;24.30;;;;;;;-144.73;76.79;86775.08;110582;1262;22339;-62
2023/11/21 09:55:05;;;;;;;46.40;26.10;;;;;;;-144.73;76.88;86766.78;110536;1260;22387;-61
2023/11/21 09:57:54;;;;;;;46.20;25.00;;;;;;;-144.73;76.79;86746.21;110522;1260;22220;-61
2023/11/21 10:00:46;;;;;;;46.50;26.30;;;;;;;-144.73;76.08;86750.17;110536;1257;22316;-60
2023/11/21 10:03:36;;;;;;;42.30;24.90;;;;;;;-144.73;76.18;86754.91;110535;1257;23548;-61
2023/11/21 10:06:26;;;;;;;53.30;27.80;;;;;;;-144.73;76.78;86772.32;110564;1261;22761;-60
2023/11/21 10:09:14;;;;;;;51.20;29.00;;;;;;;-144.73;77.08;86790.52;110584;1257;23089;-62
2023/11/21 10:12:03;;;;;;;61.20;29.80;;;;;;;-144.73;77.17;86781.02;110553;1259;22307;-63
2023/11/21 10:14:52;;;;;;;66.30;29.10;;;;;;;-144.73;77.44;86794.46;110532;1254;22325;-62
2023/11/21 10:17:43;;;;;;;55.10;30.90;;;;;;;-144.73;77.39;86772.32;110599;1260;22199;-62
2023/11/21 10:20:30;;;;;;;55.30;29.90;;;;;;;-144.73;77.62;86773.90;110524;1264;22296;-63
2023/11/21 10:23:17;;;;;;;55.20;29.10;;;;;;;-144.73;78.07;86793.68;110522;1258;23108;-61
2023/11/21 10:26:04;;;;;;;50.60;27.90;;;;;;;-144.73;78.08;86779.05;110547;1260;22990;-63
2023/11/21 10:29:05;;;;;;;47.40;26.00;;;;;;;-144.73;78.24;86783.39;110552;1257;23207;-60
2023/11/21 10:31:52;;;;;;;46.90;25.50;;;;;;;-144.73;78.11;86777.45;110532;1257;22189;-62
2023/11/21 10:34:41;;;;;;;49.30;26.80;;;;;;;-144.73;78.38;86775.48;110549;1255;22351;-61
2023/11/21 10:37:27;;;;;;;69.80;29.50;;;;;;;-144.73;78.48;86773.50;110484;1257;22220;-60
2023/11/21 10:40:14;;;;;;;56.50;29.90;;;;;;;-144.73;78.44;86781.42;110515;1260;22389;-60
2023/11/21 10:43:10;;;;;;;51.80;26.90;;;;;;;-144.73;77.57;86747.40;110562;1256;22333;-59
2023/11/21 10:45:59;;;;;;;48.30;25.70;;;;;;;-144.73;77.46;86745.82;110522;1260;22900;-61
2023/11/21 10:48:46;;;;;;;39.60;22.40;;;;;;;-144.73;77.59;86762.04;110546;1259;22413;-60
2023/11/21 10:51:33;;;;;;;46.20;22.60;;;;;;;-144.73;77.28;86758.08;110481;1254;22365;-61
2023/11/21 10:54:28;;;;;;;45.70;23.10;;;;;;;-144.73;77.39;86748.19;110512;1259;22181;-59
2023/11/21 10:57:19;;;;;;;46.60;24.20;;;;;;;-144.73;77.65;86751.36;110516;1260;22416;-58
2023/11/21 11:00:06;;;;;;;44.90;25.00;;;;;;;-144.73;76.78;86729.21;110353;1260;22327;-57
2023/11/21 11:02:56;;;;;;;52.10;24.50;;;;;;;-144.73;75.56;86735.54;110478;1253;22292;-56
2023/11/21 11:05:51;;;;;;;44.80;23.90;;;;;;;-144.73;75.10;86735.93;110409;1258;115338;-57
2023/11/21 11:08:39;;;;;;;42.20;24.60;;;;;;;-144.73;75.15;86748.59;110525;1263;22407;-56
2023/11/21 11:11:26;;;;;;;40.70;22.50;;;;;;;-144.73;75.56;86744.23;110547;1259;22350;-56
2023/11/21 11:14:13;;;;;;;50.40;24.50;;;;;;;-144.73;75.74;86752.94;110538;1260;23045;-57
2023/11/21 11:17:01;;;;;;;46.70;25.40;;;;;;;-144.73;75.69;86740.28;110538;1260;23121;-56
2023/11/21 11:19:49;;;;;;;44.60;23.60;;;;;;;-144.73;75.61;86749.38;110538;1260;22352;-56
2023/11/21 11:22:45;;;;;;;56.40;24.30;;;;;;;-144.73;75.53;86757.29;110530;1259;22394;-56
2023/11/21 11:26:05;;;;;;;50.80;24.60;;;;;;;-144.73;75.05;86767.96;110538;1259;22308;-56
2023/11/21 11:29:11;;;;;;;57.40;26.60;;;;;;;-144.73;74.95;86764.02;110490;1257;22950;-56
2023/11/21 11:32:16;;;;;;;60.60;30.60;;;;;;;-144.73;75.35;86790.91;110461;1269;22313;-56
2023/11/21 11:35:17;;;;;;;57.20;29.30;;;;;;;-144.73;76.14;86773.50;110506;1264;22335;-57
2023/11/21 11:38:03;;;;;;;64.00;31.30;;;;;;;-144.73;76.42;86777.06;110498;1253;22135;-56
2023/11/21 11:40:54;;;;;;;63.30;34.00;;;;;;;-144.73;76.26;86776.67;110508;1264;22345;-56
2023/11/21 11:43:43;;;;;;;57.20;31.70;;;;;;;-144.73;76.54;86777.85;110552;1259;23106;-56
2023/11/21 11:46:47;;;;;;;59.70;28.70;;;;;;;-144.73;76.62;86789.33;110551;1254;23039;-56
2023/11/21 11:49:34;;;;;;;52.10;26.40;;;;;;;-144.73;76.56;86775.09;110563;1256;22336;-55
2023/11/21 11:52:44;;;;;;;53.50;27.30;;;;;;;-144.73;76.22;86771.92;110527;1254;22878;-55
2023/11/21 11:55:30;;;;;;;50.90;25.90;;;;;;;-144.73;75.74;86770.35;110572;1260;22305;-55
2023/11/21 11:58:17;;;;;;;47.10;26.00;;;;;;;-144.73;76.12;86793.27;110544;1257;22312;-55
2023/11/21 12:01:06;;;;;;;50.10;24.80;;;;;;;-144.73;76.19;86808.70;110584;1255;22330;-56
2023/11/21 12:04:22;;;;;;;42.10;22.30;;;;;;;-144.73;76.31;86806.73;110562;1260;22389;-56
2023/11/21 12:07:13;;;;;;;41.90;22.80;;;;;;;-144.73;76.67;86792.10;110516;1256;22314;-56
2023/11/21 12:10:00;;;;;;;41.10;23.20;;;;;;;-144.73;77.00;86799.21;110526;1266;22398;-57
2023/11/21 12:12:54;;;;;;;44.80;24.90;;;;;;;-144.73;77.40;86802.77;110559;1260;22337;-56
2023/11/21 12:15:41;;;;;;;42.10;21.70;;;;;;;-144.73;77.31;86804.75;110660;1260;22370;-56
2023/11/21 12:18:28;;;;;;;39.60;23.10;;;;;;;-144.73;77.02;86805.54;110607;1259;22648;-57
2023/11/21 12:21:16;;;;;;;46.10;23.70;;;;;;;-144.73;76.83;86810.69;110583;1260;22296;-56
2023/11/21 12:24:03;;;;;;;43.20;24.20;;;;;;;-144.73;76.86;86797.64;110544;1259;22325;-57
2023/11/21 12:26:49;;;;;;;49.00;24.40;;;;;;;-144.73;76.56;86802.38;110567;1260;22391;-56